createdAt,value
2023-10-02T00:00:23.681Z,27.00
2023-10-02T00:03:36.700Z,26.90
2023-10-02T00:06:46.018Z,26.70
2023-10-02T00:09:57.837Z,26.70
2023-10-02T00:13:08.053Z,26.50
2023-10-02T00:16:17.065Z,26.50
2023-10-02T00:19:29.926Z,26.40
2023-10-02T00:22:43.990Z,26.40
2023-10-02T00:26:02.193Z,26.40
2023-10-02T00:29:11.896Z,26.50
2023-10-02T00:32:20.936Z,26.60
2023-10-02T00:35:32.168Z,26.70
2023-10-02T00:38:41.734Z,26.80
2023-10-02T00:42:20.010Z,26.90
2023-10-02T00:45:31.204Z,26.90
2023-10-02T00:48:42.176Z,26.90
2023-10-02T00:51:54.791Z,27.00
2023-10-02T00:55:04.630Z,27.00
2023-10-02T00:58:17.382Z,27.00
2023-10-02T01:01:32.134Z,27.00
2023-10-02T01:04:39.950Z,27.10
2023-10-02T01:07:48.691Z,27.10
2023-10-02T01:11:05.724Z,27.10
2023-10-02T01:14:13.469Z,27.10
2023-10-02T01:17:25.736Z,27.00
2023-10-02T01:20:37.552Z,26.90
2023-10-02T01:23:52.957Z,26.80
2023-10-02T01:27:02.673Z,26.70
2023-10-02T01:30:18.282Z,26.60
2023-10-02T01:33:29.177Z,26.50
2023-10-02T01:36:38.865Z,26.50
2023-10-02T01:39:50.069Z,26.40
2023-10-02T01:43:02.447Z,26.50
2023-10-02T01:46:10.926Z,26.60
2023-10-02T01:49:29.308Z,26.60
2023-10-02T01:52:51.348Z,26.70
2023-10-02T01:56:00.499Z,26.70
2023-10-02T01:59:13.629Z,26.80
2023-10-02T02:02:24.479Z,26.80
2023-10-02T02:05:36.360Z,26.80
2023-10-02T02:08:45.249Z,26.80
2023-10-02T02:11:57.186Z,26.90
2023-10-02T02:15:11.278Z,26.90
2023-10-02T02:18:22.629Z,26.90
2023-10-02T02:21:31.818Z,26.90
2023-10-02T02:24:46.512Z,26.90
2023-10-02T02:27:57.746Z,26.90
2023-10-02T02:31:10.201Z,26.90
2023-10-02T02:34:22.599Z,26.90
2023-10-02T02:37:32.918Z,26.90
2023-10-02T02:40:42.437Z,26.80
2023-10-02T02:43:53.421Z,26.60
2023-10-02T02:47:06.660Z,26.50
2023-10-02T02:50:18.096Z,26.50
2023-10-02T02:53:29.589Z,26.40
2023-10-02T02:56:41.534Z,26.40
2023-10-02T03:00:20.911Z,26.50
2023-10-02T03:03:36.659Z,26.50
2023-10-02T03:06:45.044Z,26.60
2023-10-02T03:09:53.946Z,26.60
2023-10-02T03:13:03.266Z,26.60
2023-10-02T03:16:18.902Z,26.60
2023-10-02T03:19:34.107Z,26.70
2023-10-02T03:22:47.681Z,26.70
2023-10-02T03:25:59.369Z,26.70
2023-10-02T03:29:08.659Z,26.70
2023-10-02T03:32:17.771Z,26.70
2023-10-02T03:35:27.158Z,26.70
2023-10-02T03:38:35.745Z,26.70
2023-10-02T03:41:50.695Z,26.70
2023-10-02T03:45:04.565Z,26.70
2023-10-02T03:48:17.017Z,26.70
2023-10-02T03:51:44.328Z,26.70
2023-10-02T03:54:54.680Z,26.70
2023-10-02T03:58:04.434Z,26.80
2023-10-02T04:01:14.132Z,26.70
2023-10-02T04:04:23.336Z,26.70
2023-10-02T04:07:32.849Z,26.70
2023-10-02T04:10:43.497Z,26.80
2023-10-02T04:13:54.325Z,26.80
2023-10-02T04:17:14.857Z,26.80
2023-10-02T04:20:29.608Z,26.70
2023-10-02T04:23:40.236Z,26.70
2023-10-02T04:26:50.860Z,26.70
2023-10-02T04:30:15.600Z,26.70
2023-10-02T04:33:26.367Z,26.70
2023-10-02T04:36:40.817Z,26.80
2023-10-02T04:40:04.844Z,26.80
2023-10-02T04:43:21.334Z,26.80
2023-10-02T04:46:33.980Z,26.80
2023-10-02T04:49:48.056Z,26.80
2023-10-02T04:53:01.987Z,26.80
2023-10-02T04:56:18.220Z,26.80
2023-10-02T04:59:29.827Z,26.80
2023-10-02T05:02:39.090Z,26.80
2023-10-02T05:05:51.162Z,26.80
2023-10-02T05:09:22.894Z,26.80
2023-10-02T05:12:32.405Z,26.80
2023-10-02T05:15:43.793Z,26.80
2023-10-02T05:18:53.524Z,26.80
2023-10-02T05:22:05.990Z,26.70
2023-10-02T05:25:20.238Z,26.70
2023-10-02T05:28:32.101Z,26.70
2023-10-02T05:31:42.635Z,26.70
2023-10-02T05:35:03.129Z,26.70
2023-10-02T05:38:16.311Z,26.70
2023-10-02T05:41:25.688Z,26.80
2023-10-02T05:44:34.165Z,26.80
2023-10-02T05:47:48.319Z,26.80
2023-10-02T05:50:58.401Z,26.80
2023-10-02T05:54:07.018Z,26.80
2023-10-02T05:57:19.343Z,26.80
2023-10-02T06:00:30.600Z,26.80
2023-10-02T06:03:40.436Z,26.80
2023-10-02T06:06:54.213Z,26.80
2023-10-02T06:10:05.578Z,26.70
2023-10-02T06:13:13.733Z,26.70
2023-10-02T06:16:24.518Z,26.70
2023-10-02T06:19:35.446Z,26.70
2023-10-02T06:22:49.619Z,26.70
2023-10-02T06:25:57.289Z,26.70
2023-10-02T06:29:22.411Z,26.70
2023-10-02T06:32:34.462Z,26.70
2023-10-02T06:35:43.724Z,26.70
2023-10-02T06:38:51.426Z,26.70
2023-10-02T06:42:05.897Z,26.70
2023-10-02T06:45:19.672Z,26.70
2023-10-02T06:48:33.842Z,26.70
2023-10-02T06:51:43.769Z,26.70
2023-10-02T06:54:54.947Z,26.70
2023-10-02T06:58:05.535Z,26.70
2023-10-02T07:01:17.510Z,26.70
2023-10-02T07:04:27.039Z,26.70
2023-10-02T07:07:36.818Z,26.70
2023-10-02T07:10:49.924Z,26.60
2023-10-02T07:14:02.919Z,26.70
2023-10-02T07:17:19.998Z,26.70
2023-10-02T07:20:27.899Z,26.70
2023-10-02T07:23:41.273Z,26.70
2023-10-02T07:26:55.629Z,26.60
2023-10-02T07:30:05.742Z,26.60
2023-10-02T07:33:15.787Z,26.70
2023-10-02T07:36:28.289Z,26.60
2023-10-02T07:39:38.326Z,26.70
2023-10-02T07:42:47.524Z,26.70
2023-10-02T07:46:09.759Z,26.60
2023-10-02T07:49:25.482Z,26.60
2023-10-02T07:52:38.677Z,26.60
2023-10-02T07:55:50.151Z,26.60
2023-10-02T07:59:05.194Z,26.60
2023-10-02T08:02:25.192Z,26.60
2023-10-02T08:05:33.745Z,26.60
2023-10-02T08:08:42.118Z,26.60
2023-10-02T08:11:51.820Z,26.60
2023-10-02T08:15:02.551Z,26.60
2023-10-02T08:18:18.715Z,26.50
2023-10-02T08:21:27.915Z,26.60
2023-10-02T08:24:38.055Z,26.60
2023-10-02T08:27:46.522Z,26.60
2023-10-02T08:30:55.937Z,26.60
2023-10-02T08:34:13.658Z,26.50
2023-10-02T08:37:19.173Z,26.50
2023-10-02T08:40:31.709Z,26.50
2023-10-02T08:43:43.753Z,26.50
2023-10-02T08:46:57.742Z,26.50
2023-10-02T08:50:12.879Z,26.50
2023-10-02T08:53:23.944Z,26.50
2023-10-02T08:56:33.374Z,26.50
2023-10-02T08:59:44.598Z,26.50
2023-10-02T09:02:58.812Z,26.50
2023-10-02T09:06:24.647Z,26.50
2023-10-02T09:12:52.191Z,26.50
2023-10-02T09:16:02.970Z,26.50
2023-10-02T09:19:32.403Z,26.40
2023-10-02T09:22:42.095Z,26.50
2023-10-02T09:26:06.904Z,26.40
2023-10-02T09:29:16.031Z,26.50
2023-10-02T09:32:30.053Z,26.50
2023-10-02T09:36:39.958Z,26.40
2023-10-02T09:38:59.427Z,26.40
2023-10-02T09:42:08.863Z,26.40
2023-10-02T09:45:23.415Z,26.40
2023-10-02T09:48:58.009Z,26.40
2023-10-02T09:52:14.318Z,26.40
2023-10-02T09:55:25.770Z,26.40
2023-10-02T09:58:37.586Z,26.40
2023-10-02T10:02:15.262Z,26.40
2023-10-02T10:05:44.013Z,26.40
2023-10-02T10:09:31.008Z,26.40
2023-10-02T10:12:58.008Z,26.40
2023-10-02T10:16:44.172Z,26.40
2023-10-02T10:20:15.129Z,26.40
2023-10-02T10:23:36.368Z,26.30
2023-10-02T10:26:46.244Z,26.30
2023-10-02T10:29:59.212Z,26.30
2023-10-02T10:33:22.766Z,26.30
2023-10-02T10:36:58.358Z,26.30
2023-10-02T10:40:09.135Z,26.30
2023-10-02T10:43:19.847Z,26.30
2023-10-02T10:46:30.967Z,26.30
2023-10-02T10:50:02.109Z,26.30
2023-10-02T10:53:33.126Z,26.30
2023-10-02T10:56:43.027Z,26.30
2023-10-02T10:59:51.004Z,26.40
2023-10-02T11:03:05.287Z,26.30
2023-10-02T11:06:19.551Z,26.30
2023-10-02T11:09:28.719Z,26.30
2023-10-02T11:12:46.453Z,26.30
2023-10-02T11:16:04.229Z,26.30
2023-10-02T11:19:19.162Z,26.30
2023-10-02T11:22:29.293Z,26.30
2023-10-02T11:25:42.007Z,26.30
2023-10-02T11:28:52.670Z,26.30
2023-10-02T11:32:21.439Z,26.30
2023-10-02T11:35:34.228Z,26.30
2023-10-02T11:38:46.610Z,26.20
2023-10-02T11:41:57.519Z,26.30
2023-10-02T11:45:05.648Z,26.30
2023-10-02T11:48:14.643Z,26.20
2023-10-02T11:51:28.019Z,26.20
2023-10-02T11:54:38.533Z,26.20
2023-10-02T11:57:50.885Z,26.30
2023-10-02T12:01:00.392Z,26.20
2023-10-02T12:04:09.748Z,26.20
2023-10-02T12:07:18.841Z,26.20
2023-10-02T12:10:27.421Z,26.20
2023-10-02T12:13:38.738Z,26.30
2023-10-02T12:16:48.459Z,26.20
2023-10-02T12:20:00.736Z,26.20
2023-10-02T12:23:09.049Z,26.30
2023-10-02T12:26:18.858Z,26.30
2023-10-02T12:29:33.279Z,26.30
2023-10-02T12:32:41.148Z,26.30
2023-10-02T12:35:57.582Z,26.30
2023-10-02T12:39:07.429Z,26.30
2023-10-02T12:42:15.664Z,26.30
2023-10-02T12:45:23.692Z,26.30
2023-10-02T12:48:32.185Z,26.30
2023-10-02T12:51:41.760Z,26.30
2023-10-02T12:54:56.011Z,26.20
2023-10-02T12:58:06.462Z,26.20
2023-10-02T13:01:16.308Z,26.30
2023-10-02T13:04:27.317Z,26.40
2023-10-02T13:07:35.205Z,26.40
2023-10-02T13:10:43.830Z,26.40
2023-10-02T13:13:54.374Z,26.50
2023-10-02T13:17:06.145Z,26.60
2023-10-02T13:20:17.079Z,26.70
2023-10-02T13:23:27.303Z,26.70
2023-10-02T13:26:35.374Z,26.70
2023-10-02T13:29:46.161Z,26.70
2023-10-02T13:32:56.948Z,26.90
2023-10-02T13:36:08.282Z,27.00
2023-10-02T13:39:17.344Z,27.10
2023-10-02T13:42:30.220Z,27.10
2023-10-02T13:45:39.081Z,27.20
2023-10-02T13:48:51.903Z,27.30
2023-10-02T13:52:00.106Z,27.30
2023-10-02T13:55:10.417Z,27.40
2023-10-02T13:58:20.824Z,27.50
2023-10-02T14:01:29.030Z,27.60
2023-10-02T14:04:39.956Z,27.60
2023-10-02T14:07:47.949Z,27.60
2023-10-02T14:10:59.746Z,27.60
2023-10-02T14:14:09.677Z,27.70
2023-10-02T14:17:17.735Z,27.80
2023-10-02T14:20:26.932Z,27.80
2023-10-02T14:23:35.926Z,27.80
2023-10-02T14:26:43.539Z,27.90
2023-10-02T14:29:53.504Z,28.00
2023-10-02T14:33:04.718Z,28.10
2023-10-02T14:36:13.469Z,28.10
2023-10-02T14:39:22.933Z,28.10
2023-10-02T14:42:33.898Z,28.20
2023-10-02T14:45:42.073Z,28.30
2023-10-02T14:48:49.909Z,28.30
2023-10-02T14:52:00.749Z,28.30
2023-10-02T14:55:16.321Z,28.30
2023-10-02T14:58:26.232Z,28.40
2023-10-02T15:01:34.009Z,28.50
2023-10-02T15:04:41.565Z,28.50
2023-10-02T15:07:49.716Z,28.50
2023-10-02T15:10:58.705Z,28.50
2023-10-02T15:14:08.438Z,28.60
2023-10-02T15:17:24.828Z,28.70
2023-10-02T15:20:36.310Z,28.70
2023-10-02T15:23:43.720Z,28.70
2023-10-02T15:26:53.055Z,28.70
2023-10-02T15:30:00.771Z,28.80
2023-10-02T15:33:16.617Z,28.80
2023-10-02T15:36:25.315Z,28.80
2023-10-02T15:39:36.819Z,28.90
2023-10-02T15:42:46.155Z,29.00
2023-10-02T15:45:58.043Z,29.00
2023-10-02T15:49:06.422Z,29.00
2023-10-02T15:52:15.792Z,28.90
2023-10-02T15:55:29.203Z,28.90
2023-10-02T15:58:38.870Z,29.00
2023-10-02T16:01:48.893Z,29.00
2023-10-02T16:04:58.738Z,28.90
2023-10-02T16:08:09.418Z,28.90
2023-10-02T16:11:22.570Z,28.90
2023-10-02T16:14:33.346Z,28.90
2023-10-02T16:17:42.584Z,28.90
2023-10-02T16:21:06.125Z,28.90
2023-10-02T16:24:15.200Z,28.80
2023-10-02T16:27:35.788Z,28.70
2023-10-02T16:30:46.871Z,28.70
2023-10-02T16:33:54.642Z,28.70
2023-10-02T16:37:10.703Z,28.80
2023-10-02T16:40:24.848Z,28.80
2023-10-02T16:43:32.737Z,28.80
2023-10-02T16:46:41.364Z,28.80
2023-10-02T16:49:51.101Z,28.80
2023-10-02T16:53:00.006Z,28.80
2023-10-02T16:56:09.809Z,28.90
2023-10-02T16:59:19.986Z,28.90
2023-10-02T17:02:28.787Z,28.90
2023-10-02T17:05:37.162Z,28.90
2023-10-02T17:08:45.193Z,29.00
2023-10-02T17:11:56.034Z,29.00
2023-10-02T17:15:06.606Z,29.00
2023-10-02T17:18:14.289Z,29.00
2023-10-02T17:21:31.691Z,28.90
2023-10-02T17:24:39.204Z,28.80
2023-10-02T17:27:46.816Z,28.80
2023-10-02T17:30:56.020Z,28.70
2023-10-02T17:34:06.357Z,28.60
2023-10-02T17:37:14.758Z,28.60
2023-10-02T17:40:24.372Z,28.50
2023-10-02T17:43:32.564Z,28.50
2023-10-02T17:46:40.588Z,28.40
2023-10-02T17:49:50.087Z,28.50
2023-10-02T17:52:59.358Z,28.50
2023-10-02T17:56:12.140Z,28.60
2023-10-02T17:59:18.477Z,28.60
2023-10-02T18:02:29.972Z,28.70
2023-10-02T18:05:41.083Z,28.70
2023-10-02T18:08:51.786Z,28.70
2023-10-02T18:12:03.859Z,28.70
2023-10-02T18:15:18.245Z,28.70
2023-10-02T18:18:27.675Z,28.70
2023-10-02T18:21:39.436Z,28.60
2023-10-02T18:24:50.666Z,28.60
2023-10-02T18:27:59.991Z,28.50
2023-10-02T18:31:07.807Z,28.40
2023-10-02T18:34:35.859Z,28.40
2023-10-02T18:37:35.843Z,28.30
2023-10-02T18:40:51.038Z,28.20
2023-10-02T18:44:06.076Z,28.20
2023-10-02T18:47:22.191Z,28.30
2023-10-02T18:50:35.950Z,28.30
2023-10-02T18:53:53.626Z,28.40
2023-10-02T18:57:08.233Z,28.40
2023-10-02T19:00:26.431Z,28.50
2023-10-02T19:03:40.616Z,28.50
2023-10-02T19:06:54.100Z,28.40
2023-10-02T19:10:09.582Z,28.30
2023-10-02T19:13:25.344Z,28.20
2023-10-02T19:16:40.836Z,28.10
2023-10-02T19:19:58.218Z,28.10
2023-10-02T19:23:13.385Z,28.00
2023-10-02T19:26:29.456Z,28.00
2023-10-02T19:29:43.543Z,28.10
2023-10-02T19:32:56.601Z,28.00
2023-10-02T19:36:12.421Z,28.00
2023-10-02T19:39:27.674Z,28.00
2023-10-02T19:42:42.072Z,27.90
2023-10-02T19:45:58.557Z,27.80
2023-10-02T19:52:31.901Z,27.60
2023-10-02T19:55:47.527Z,27.70
2023-10-02T19:59:03.025Z,27.60
2023-10-02T20:02:18.188Z,27.60
2023-10-02T20:05:33.832Z,27.60
2023-10-02T20:08:49.027Z,27.80
2023-10-02T20:15:22.048Z,27.90
2023-10-02T20:18:36.848Z,28.00
2023-10-02T20:21:53.601Z,28.00
2023-10-02T20:25:08.585Z,28.00
2023-10-02T20:28:23.867Z,28.10
2023-10-02T20:31:38.219Z,28.00
2023-10-02T20:34:49.368Z,27.90
2023-10-02T20:38:03.841Z,27.70
2023-10-02T20:41:18.598Z,27.60
2023-10-02T20:44:35.692Z,27.50
2023-10-02T20:47:47.047Z,27.40
2023-10-02T20:51:03.833Z,27.40
2023-10-02T20:54:18.780Z,27.50
2023-10-02T20:57:30.465Z,27.40
2023-10-02T21:00:44.954Z,27.30
2023-10-02T21:03:59.607Z,27.30
2023-10-02T21:07:12.138Z,27.40
2023-10-02T21:10:26.528Z,27.50
2023-10-02T21:13:40.672Z,27.60
2023-10-02T21:16:54.754Z,27.70
2023-10-02T21:20:10.489Z,27.80
2023-10-02T21:23:26.372Z,27.80
2023-10-02T21:26:42.168Z,27.80
2023-10-02T21:29:55.843Z,27.70
2023-10-02T21:33:13.267Z,27.60
2023-10-02T21:36:40.851Z,27.50
2023-10-02T21:39:55.685Z,27.30
2023-10-02T21:43:10.151Z,27.30
2023-10-02T21:46:24.718Z,27.20
2023-10-02T21:49:39.594Z,27.20
2023-10-02T21:52:52.362Z,27.10
2023-10-02T21:56:07.974Z,27.10
2023-10-02T21:59:23.449Z,27.10
2023-10-02T22:02:39.334Z,27.10
2023-10-02T22:05:54.169Z,27.00
2023-10-02T22:09:08.966Z,27.00
2023-10-02T22:12:25.045Z,27.10
2023-10-02T22:15:40.643Z,27.20
2023-10-02T22:18:57.207Z,27.30
2023-10-02T22:22:12.201Z,27.30
2023-10-02T22:25:28.841Z,27.50
2023-10-02T22:28:45.167Z,27.50
2023-10-02T22:32:00.102Z,27.50
2023-10-02T22:35:14.617Z,27.50
2023-10-02T22:38:30.866Z,27.50
2023-10-02T22:41:44.612Z,27.50
2023-10-02T22:44:59.770Z,27.50
2023-10-02T22:51:38.670Z,27.60
2023-10-02T22:54:52.740Z,27.60
2023-10-02T22:58:10.435Z,27.60
2023-10-02T23:01:26.573Z,27.60
2023-10-02T23:04:41.535Z,27.50
2023-10-02T23:07:56.480Z,27.40
2023-10-02T23:11:11.387Z,27.20
2023-10-02T23:14:26.536Z,27.10
2023-10-02T23:17:40.694Z,27.00
2023-10-02T23:20:57.255Z,26.90
2023-10-02T23:24:14.099Z,26.80
2023-10-02T23:27:28.956Z,26.80
2023-10-02T23:30:43.349Z,26.90
2023-10-02T23:33:58.358Z,27.00
2023-10-02T23:37:16.039Z,27.10
2023-10-02T23:40:32.353Z,27.30
2023-10-02T23:43:46.739Z,27.30
2023-10-02T23:47:01.161Z,27.30
2023-10-02T23:50:18.700Z,27.40
2023-10-02T23:53:31.952Z,27.40
2023-10-02T23:56:45.713Z,27.40
